sensor_id;sensor_type;location;lat;lon;timestamp;pressure;altitude;pressure_sealevel;temperature;humidity
50632;BME280;49583;45.590;-122.498;2023-04-29T00:00:38;100608.94;;;30.71;24.04
50632;BME280;49583;45.590;-122.498;2023-04-29T00:02:56;100601.90;;;30.67;23.95
50632;BME280;49583;45.590;-122.498;2023-04-29T00:05:11;100602.27;;;30.66;23.91
50632;BME280;49583;45.590;-122.498;2023-04-29T00:07:24;100602.67;;;30.66;23.97
50632;BME280;49583;45.590;-122.498;2023-04-29T00:09:37;100599.80;;;30.66;24.12
50632;BME280;49583;45.590;-122.498;2023-04-29T00:11:49;100598.46;;;30.66;24.24
50632;BME280;49583;45.590;-122.498;2023-04-29T00:14:02;100600.27;;;30.66;24.19
50632;BME280;49583;45.590;-122.498;2023-04-29T00:16:15;100599.98;;;30.64;24.10
50632;BME280;49583;45.590;-122.498;2023-04-29T00:18:27;100599.88;;;30.58;24.08
50632;BME280;49583;45.590;-122.498;2023-04-29T00:20:42;100600.02;;;30.52;23.87
50632;BME280;49583;45.590;-122.498;2023-04-29T00:22:54;100597.38;;;30.41;24.01
50632;BME280;49583;45.590;-122.498;2023-04-29T00:25:09;100602.44;;;30.34;24.28
50632;BME280;49583;45.590;-122.498;2023-04-29T00:27:22;100596.27;;;30.30;24.15
50632;BME280;49583;45.590;-122.498;2023-04-29T00:29:35;100600.16;;;30.29;24.38
50632;BME280;49583;45.590;-122.498;2023-04-29T00:31:47;100601.85;;;30.27;24.41
50632;BME280;49583;45.590;-122.498;2023-04-29T00:34:00;100602.94;;;30.18;24.54
50632;BME280;49583;45.590;-122.498;2023-04-29T00:36:12;100599.23;;;30.12;24.56
50632;BME280;49583;45.590;-122.498;2023-04-29T00:38:25;100601.14;;;30.09;24.74
50632;BME280;49583;45.590;-122.498;2023-04-29T00:40:38;100597.69;;;30.04;24.51
50632;BME280;49583;45.590;-122.498;2023-04-29T00:42:50;100599.83;;;29.99;24.72
50632;BME280;49583;45.590;-122.498;2023-04-29T00:45:04;100597.24;;;29.93;24.60
50632;BME280;49583;45.590;-122.498;2023-04-29T00:47:17;100592.65;;;29.89;24.78
50632;BME280;49583;45.590;-122.498;2023-04-29T00:49:30;100593.39;;;29.86;24.95
50632;BME280;49583;45.590;-122.498;2023-04-29T00:51:43;100590.75;;;29.84;25.07
50632;BME280;49583;45.590;-122.498;2023-04-29T00:53:56;100588.11;;;29.81;24.96
50632;BME280;49583;45.590;-122.498;2023-04-29T00:56:10;100591.08;;;29.80;25.11
50632;BME280;49583;45.590;-122.498;2023-04-29T00:58:24;100592.66;;;29.80;25.24
50632;BME280;49583;45.590;-122.498;2023-04-29T01:00:42;100592.81;;;29.77;25.32
50632;BME280;49583;45.590;-122.498;2023-04-29T01:02:57;100594.23;;;29.76;25.30
50632;BME280;49583;45.590;-122.498;2023-04-29T01:05:13;100599.19;;;29.74;25.24
50632;BME280;49583;45.590;-122.498;2023-04-29T01:07:33;100599.05;;;29.71;25.19
50632;BME280;49583;45.590;-122.498;2023-04-29T01:09:58;100601.66;;;29.67;25.08
50632;BME280;49583;45.590;-122.498;2023-04-29T01:12:19;100599.95;;;29.60;25.15
50632;BME280;49583;45.590;-122.498;2023-04-29T01:14:34;100599.73;;;29.53;25.02
50632;BME280;49583;45.590;-122.498;2023-04-29T01:16:53;100596.43;;;29.44;25.12
50632;BME280;49583;45.590;-122.498;2023-04-29T01:19:19;100597.88;;;29.37;25.09
50632;BME280;49583;45.590;-122.498;2023-04-29T01:21:49;100593.27;;;29.30;25.26
50632;BME280;49583;45.590;-122.498;2023-04-29T01:24:02;100583.65;;;29.24;25.53
50632;BME280;49583;45.590;-122.498;2023-04-29T01:26:14;100583.25;;;29.21;25.31
50632;BME280;49583;45.590;-122.498;2023-04-29T01:28:53;100578.60;;;29.15;25.51
50632;BME280;49583;45.590;-122.498;2023-04-29T01:31:10;100577.31;;;29.11;25.49
50632;BME280;49583;45.590;-122.498;2023-04-29T01:33:32;100574.13;;;29.07;25.70
50632;BME280;49583;45.590;-122.498;2023-04-29T01:35:54;100572.12;;;29.07;26.00
50632;BME280;49583;45.590;-122.498;2023-04-29T01:38:25;100572.30;;;29.05;26.01
50632;BME280;49583;45.590;-122.498;2023-04-29T01:40:46;100566.61;;;29.01;26.03
50632;BME280;49583;45.590;-122.498;2023-04-29T01:43:07;100567.94;;;28.94;26.14
50632;BME280;49583;45.590;-122.498;2023-04-29T01:45:25;100560.88;;;28.85;26.14
50632;BME280;49583;45.590;-122.498;2023-04-29T01:47:39;100564.94;;;28.83;26.17
50632;BME280;49583;45.590;-122.498;2023-04-29T01:49:52;100569.71;;;28.77;26.21
50632;BME280;49583;45.590;-122.498;2023-04-29T01:52:06;100566.89;;;28.72;26.10
50632;BME280;49583;45.590;-122.498;2023-04-29T01:54:20;100566.05;;;28.68;26.08
50632;BME280;49583;45.590;-122.498;2023-04-29T01:56:33;100566.23;;;28.63;26.18
50632;BME280;49583;45.590;-122.498;2023-04-29T01:58:54;100569.02;;;28.59;25.93
50632;BME280;49583;45.590;-122.498;2023-04-29T02:01:39;100564.65;;;28.54;26.06
50632;BME280;49583;45.590;-122.498;2023-04-29T02:03:52;100565.70;;;28.53;26.11
50632;BME280;49583;45.590;-122.498;2023-04-29T02:06:04;100564.71;;;28.50;26.19
50632;BME280;49583;45.590;-122.498;2023-04-29T02:08:18;100561.39;;;28.47;26.07
50632;BME280;49583;45.590;-122.498;2023-04-29T02:10:33;100562.12;;;28.45;26.14
50632;BME280;49583;45.590;-122.498;2023-04-29T02:13:04;100567.82;;;28.44;26.26
50632;BME280;49583;45.590;-122.498;2023-04-29T02:15:17;100563.96;;;28.42;26.24
50632;BME280;49583;45.590;-122.498;2023-04-29T02:17:31;100567.45;;;28.39;26.45
50632;BME280;49583;45.590;-122.498;2023-04-29T02:19:44;100570.00;;;28.33;26.51
50632;BME280;49583;45.590;-122.498;2023-04-29T02:21:58;100572.90;;;28.30;26.55
50632;BME280;49583;45.590;-122.498;2023-04-29T02:24:13;100575.38;;;28.25;26.51
50632;BME280;49583;45.590;-122.498;2023-04-29T02:26:28;100577.82;;;28.18;26.38
50632;BME280;49583;45.590;-122.498;2023-04-29T02:28:43;100582.33;;;28.10;26.42
50632;BME280;49583;45.590;-122.498;2023-04-29T02:30:56;100589.84;;;28.02;26.08
50632;BME280;49583;45.590;-122.498;2023-04-29T02:33:11;100594.08;;;27.93;26.36
50632;BME280;49583;45.590;-122.498;2023-04-29T02:35:24;100594.39;;;27.83;26.43
50632;BME280;49583;45.590;-122.498;2023-04-29T02:37:37;100596.64;;;27.76;26.40
50632;BME280;49583;45.590;-122.498;2023-04-29T02:39:50;100594.80;;;27.64;26.49
50632;BME280;49583;45.590;-122.498;2023-04-29T02:42:03;100591.73;;;27.50;26.62
50632;BME280;49583;45.590;-122.498;2023-04-29T02:44:17;100593.85;;;27.36;26.54
50632;BME280;49583;45.590;-122.498;2023-04-29T02:46:29;100593.65;;;27.27;26.73
50632;BME280;49583;45.590;-122.498;2023-04-29T02:48:44;100592.00;;;27.20;27.01
50632;BME280;49583;45.590;-122.498;2023-04-29T02:50:57;100598.73;;;27.15;26.87
50632;BME280;49583;45.590;-122.498;2023-04-29T02:53:09;100590.41;;;27.06;27.05
50632;BME280;49583;45.590;-122.498;2023-04-29T02:55:22;100592.13;;;26.99;27.05
50632;BME280;49583;45.590;-122.498;2023-04-29T02:57:38;100595.30;;;26.93;27.13
50632;BME280;49583;45.590;-122.498;2023-04-29T02:59:51;100595.96;;;26.84;26.96
50632;BME280;49583;45.590;-122.498;2023-04-29T03:02:05;100596.58;;;26.74;27.35
50632;BME280;49583;45.590;-122.498;2023-04-29T03:04:18;100597.61;;;26.68;27.60
50632;BME280;49583;45.590;-122.498;2023-04-29T03:06:31;100599.92;;;26.61;27.41
50632;BME280;49583;45.590;-122.498;2023-04-29T03:08:44;100597.16;;;26.55;27.49
50632;BME280;49583;45.590;-122.498;2023-04-29T03:10:57;100599.37;;;26.47;27.50
50632;BME280;49583;45.590;-122.498;2023-04-29T03:13:10;100597.50;;;26.40;27.55
50632;BME280;49583;45.590;-122.498;2023-04-29T03:15:24;100601.59;;;26.31;27.63
50632;BME280;49583;45.590;-122.498;2023-04-29T03:17:38;100607.54;;;26.23;27.68
50632;BME280;49583;45.590;-122.498;2023-04-29T03:19:50;100610.09;;;26.16;27.71
50632;BME280;49583;45.590;-122.498;2023-04-29T03:22:03;100611.55;;;26.10;27.85
50632;BME280;49583;45.590;-122.498;2023-04-29T03:24:17;100615.33;;;26.03;27.78
50632;BME280;49583;45.590;-122.498;2023-04-29T03:26:30;100616.23;;;25.97;27.89
50632;BME280;49583;45.590;-122.498;2023-04-29T03:28:44;100615.63;;;25.90;27.97
50632;BME280;49583;45.590;-122.498;2023-04-29T03:30:56;100615.09;;;25.82;28.13
50632;BME280;49583;45.590;-122.498;2023-04-29T03:33:10;100615.11;;;25.74;28.23
50632;BME280;49583;45.590;-122.498;2023-04-29T03:35:23;100619.01;;;25.70;28.18
50632;BME280;49583;45.590;-122.498;2023-04-29T03:38:11;100625.15;;;25.62;28.31
50632;BME280;49583;45.590;-122.498;2023-04-29T03:40:24;100627.25;;;25.55;28.28
50632;BME280;49583;45.590;-122.498;2023-04-29T03:42:37;100626.30;;;25.49;28.41
50632;BME280;49583;45.590;-122.498;2023-04-29T03:44:49;100626.23;;;25.44;28.43
50632;BME280;49583;45.590;-122.498;2023-04-29T03:47:02;100629.89;;;25.38;28.40
50632;BME280;49583;45.590;-122.498;2023-04-29T03:49:16;100633.31;;;25.32;28.57
50632;BME280;49583;45.590;-122.498;2023-04-29T03:51:28;100636.04;;;25.26;28.67
50632;BME280;49583;45.590;-122.498;2023-04-29T03:53:48;100638.88;;;25.21;28.64
50632;BME280;49583;45.590;-122.498;2023-04-29T03:56:00;100642.25;;;25.15;28.74
50632;BME280;49583;45.590;-122.498;2023-04-29T03:58:13;100644.02;;;25.09;28.87
50632;BME280;49583;45.590;-122.498;2023-04-29T04:00:26;100646.84;;;25.04;28.92
50632;BME280;49583;45.590;-122.498;2023-04-29T04:02:40;100645.59;;;24.99;29.04
50632;BME280;49583;45.590;-122.498;2023-04-29T04:04:55;100650.41;;;25.00;29.00
50632;BME280;49583;45.590;-122.498;2023-04-29T04:07:08;100655.34;;;24.98;29.07
50632;BME280;49583;45.590;-122.498;2023-04-29T04:09:40;100660.96;;;24.93;29.15
50632;BME280;49583;45.590;-122.498;2023-04-29T04:11:53;100655.14;;;24.87;29.02
50632;BME280;49583;45.590;-122.498;2023-04-29T04:14:06;100660.83;;;24.83;29.10
50632;BME280;49583;45.590;-122.498;2023-04-29T04:16:19;100662.61;;;24.80;29.14
50632;BME280;49583;45.590;-122.498;2023-04-29T04:18:32;100661.66;;;24.76;29.20
50632;BME280;49583;45.590;-122.498;2023-04-29T04:20:45;100662.77;;;24.72;29.19
50632;BME280;49583;45.590;-122.498;2023-04-29T04:22:59;100662.79;;;24.67;29.30
50632;BME280;49583;45.590;-122.498;2023-04-29T04:25:13;100664.19;;;24.64;29.32
50632;BME280;49583;45.590;-122.498;2023-04-29T04:27:27;100669.20;;;24.60;29.39
50632;BME280;49583;45.590;-122.498;2023-04-29T04:29:41;100671.60;;;24.58;29.39
50632;BME280;49583;45.590;-122.498;2023-04-29T04:32:01;100676.08;;;24.54;29.56
50632;BME280;49583;45.590;-122.498;2023-04-29T04:34:14;100688.21;;;24.50;29.44
50632;BME280;49583;45.590;-122.498;2023-04-29T04:36:30;100686.41;;;24.45;29.51
50632;BME280;49583;45.590;-122.498;2023-04-29T04:38:43;100689.21;;;24.40;29.53
50632;BME280;49583;45.590;-122.498;2023-04-29T04:40:56;100691.05;;;24.35;29.69
50632;BME280;49583;45.590;-122.498;2023-04-29T04:43:15;100697.84;;;24.29;29.70
50632;BME280;49583;45.590;-122.498;2023-04-29T04:45:29;100696.91;;;24.23;29.79
50632;BME280;49583;45.590;-122.498;2023-04-29T04:47:43;100698.61;;;24.20;29.87
50632;BME280;49583;45.590;-122.498;2023-04-29T04:50:02;100702.77;;;24.14;29.93
50632;BME280;49583;45.590;-122.498;2023-04-29T04:52:15;100700.88;;;24.09;30.08
50632;BME280;49583;45.590;-122.498;2023-04-29T04:54:31;100704.34;;;24.04;30.14
50632;BME280;49583;45.590;-122.498;2023-04-29T04:56:53;100710.89;;;23.97;30.15
50632;BME280;49583;45.590;-122.498;2023-04-29T04:59:06;100710.31;;;23.92;30.13
50632;BME280;49583;45.590;-122.498;2023-04-29T05:01:19;100721.45;;;23.89;30.20
50632;BME280;49583;45.590;-122.498;2023-04-29T05:03:32;100718.37;;;23.85;30.44
50632;BME280;49583;45.590;-122.498;2023-04-29T05:05:46;100722.81;;;23.82;30.35
50632;BME280;49583;45.590;-122.498;2023-04-29T05:08:04;100722.26;;;23.76;30.42
50632;BME280;49583;45.590;-122.498;2023-04-29T05:10:22;100726.52;;;23.71;30.59
50632;BME280;49583;45.590;-122.498;2023-04-29T05:12:37;100728.68;;;23.66;30.77
50632;BME280;49583;45.590;-122.498;2023-04-29T05:14:54;100724.23;;;23.60;30.73
50632;BME280;49583;45.590;-122.498;2023-04-29T05:17:07;100728.52;;;23.55;30.76
50632;BME280;49583;45.590;-122.498;2023-04-29T05:19:21;100728.60;;;23.51;30.95
50632;BME280;49583;45.590;-122.498;2023-04-29T05:21:33;100733.98;;;23.46;30.97
50632;BME280;49583;45.590;-122.498;2023-04-29T05:23:46;100733.21;;;23.42;30.80
50632;BME280;49583;45.590;-122.498;2023-04-29T05:25:59;100730.42;;;23.39;31.05
50632;BME280;49583;45.590;-122.498;2023-04-29T05:28:11;100741.90;;;23.37;31.03
50632;BME280;49583;45.590;-122.498;2023-04-29T05:30:25;100735.38;;;23.34;31.14
50632;BME280;49583;45.590;-122.498;2023-04-29T05:32:38;100741.06;;;23.31;31.04
50632;BME280;49583;45.590;-122.498;2023-04-29T05:34:53;100738.67;;;23.25;31.21
50632;BME280;49583;45.590;-122.498;2023-04-29T05:37:05;100748.38;;;23.24;31.28
50632;BME280;49583;45.590;-122.498;2023-04-29T05:39:28;100748.59;;;23.19;31.44
50632;BME280;49583;45.590;-122.498;2023-04-29T05:41:49;100750.59;;;23.16;31.38
50632;BME280;49583;45.590;-122.498;2023-04-29T05:44:14;100752.48;;;23.12;31.52
50632;BME280;49583;45.590;-122.498;2023-04-29T05:46:27;100751.61;;;23.09;31.64
50632;BME280;49583;45.590;-122.498;2023-04-29T05:48:40;100754.78;;;23.07;31.57
50632;BME280;49583;45.590;-122.498;2023-04-29T05:50:53;100759.00;;;23.05;31.61
50632;BME280;49583;45.590;-122.498;2023-04-29T05:53:06;100757.24;;;23.01;31.58
50632;BME280;49583;45.590;-122.498;2023-04-29T05:55:19;100758.20;;;22.99;31.56
50632;BME280;49583;45.590;-122.498;2023-04-29T05:57:32;100760.18;;;22.96;31.58
50632;BME280;49583;45.590;-122.498;2023-04-29T05:59:44;100763.40;;;22.96;31.58
50632;BME280;49583;45.590;-122.498;2023-04-29T06:01:57;100766.58;;;22.93;31.88
50632;BME280;49583;45.590;-122.498;2023-04-29T06:04:10;100763.60;;;22.89;31.95
50632;BME280;49583;45.590;-122.498;2023-04-29T06:06:42;100772.52;;;22.84;32.15
50632;BME280;49583;45.590;-122.498;2023-04-29T06:09:08;100780.16;;;22.78;32.29
50632;BME280;49583;45.590;-122.498;2023-04-29T06:11:32;100786.30;;;22.71;32.60
50632;BME280;49583;45.590;-122.498;2023-04-29T06:13:45;100785.30;;;22.63;32.68
50632;BME280;49583;45.590;-122.498;2023-04-29T06:15:58;100781.66;;;22.56;32.90
50632;BME280;49583;45.590;-122.498;2023-04-29T06:18:14;100788.52;;;22.51;32.97
50632;BME280;49583;45.590;-122.498;2023-04-29T06:20:26;100791.05;;;22.45;32.87
50632;BME280;49583;45.590;-122.498;2023-04-29T06:22:40;100792.52;;;22.41;32.76
50632;BME280;49583;45.590;-122.498;2023-04-29T06:24:52;100797.79;;;22.41;32.81
50632;BME280;49583;45.590;-122.498;2023-04-29T06:27:18;100805.95;;;22.39;32.87
50632;BME280;49583;45.590;-122.498;2023-04-29T06:29:31;100810.11;;;22.36;33.24
50632;BME280;49583;45.590;-122.498;2023-04-29T06:31:44;100812.46;;;22.31;33.05
50632;BME280;49583;45.590;-122.498;2023-04-29T06:33:56;100819.67;;;22.26;33.07
50632;BME280;49583;45.590;-122.498;2023-04-29T06:36:09;100823.65;;;22.23;33.23
50632;BME280;49583;45.590;-122.498;2023-04-29T06:38:43;100828.44;;;22.20;33.16
50632;BME280;49583;45.590;-122.498;2023-04-29T06:41:22;100831.32;;;22.15;33.24
50632;BME280;49583;45.590;-122.498;2023-04-29T06:43:52;100840.51;;;22.12;33.36
50632;BME280;49583;45.590;-122.498;2023-04-29T06:46:25;100840.23;;;22.06;33.50
50632;BME280;49583;45.590;-122.498;2023-04-29T06:48:57;100843.98;;;22.03;33.52
50632;BME280;49583;45.590;-122.498;2023-04-29T06:51:14;100847.78;;;22.00;33.46
50632;BME280;49583;45.590;-122.498;2023-04-29T06:53:27;100851.98;;;21.97;33.57
50632;BME280;49583;45.590;-122.498;2023-04-29T06:55:39;100852.16;;;21.97;33.61
50632;BME280;49583;45.590;-122.498;2023-04-29T06:57:52;100852.64;;;21.95;33.56
50632;BME280;49583;45.590;-122.498;2023-04-29T07:00:05;100855.52;;;21.95;33.39
50632;BME280;49583;45.590;-122.498;2023-04-29T07:02:17;100862.57;;;21.93;33.55
50632;BME280;49583;45.590;-122.498;2023-04-29T07:04:30;100866.98;;;21.92;33.49
50632;BME280;49583;45.590;-122.498;2023-04-29T07:06:42;100874.02;;;21.90;33.58
50632;BME280;49583;45.590;-122.498;2023-04-29T07:08:56;100873.58;;;21.88;33.57
50632;BME280;49583;45.590;-122.498;2023-04-29T07:11:09;100879.60;;;21.86;33.58
50632;BME280;49583;45.590;-122.498;2023-04-29T07:13:21;100876.10;;;21.82;33.73
50632;BME280;49583;45.590;-122.498;2023-04-29T07:15:35;100879.59;;;21.80;33.79
50632;BME280;49583;45.590;-122.498;2023-04-29T07:17:48;100885.36;;;21.78;33.91
50632;BME280;49583;45.590;-122.498;2023-04-29T07:20:02;100888.96;;;21.76;34.09
50632;BME280;49583;45.590;-122.498;2023-04-29T07:22:15;100893.79;;;21.75;34.12
50632;BME280;49583;45.590;-122.498;2023-04-29T07:24:27;100900.29;;;21.72;34.11
50632;BME280;49583;45.590;-122.498;2023-04-29T07:26:41;100898.45;;;21.69;34.32
50632;BME280;49583;45.590;-122.498;2023-04-29T07:28:56;100903.55;;;21.66;34.32
50632;BME280;49583;45.590;-122.498;2023-04-29T07:31:10;100908.36;;;21.63;34.45
50632;BME280;49583;45.590;-122.498;2023-04-29T07:33:23;100905.25;;;21.60;34.67
50632;BME280;49583;45.590;-122.498;2023-04-29T07:35:35;100915.73;;;21.57;34.66
50632;BME280;49583;45.590;-122.498;2023-04-29T07:37:50;100916.84;;;21.53;34.78
50632;BME280;49583;45.590;-122.498;2023-04-29T07:40:03;100920.02;;;21.49;35.00
50632;BME280;49583;45.590;-122.498;2023-04-29T07:42:19;100923.30;;;21.45;35.17
50632;BME280;49583;45.590;-122.498;2023-04-29T07:44:39;100925.16;;;21.39;35.35
50632;BME280;49583;45.590;-122.498;2023-04-29T07:46:52;100932.81;;;21.35;35.35
50632;BME280;49583;45.590;-122.498;2023-04-29T07:49:05;100939.31;;;21.31;35.51
50632;BME280;49583;45.590;-122.498;2023-04-29T07:51:18;100942.58;;;21.27;35.56
50632;BME280;49583;45.590;-122.498;2023-04-29T07:53:30;100944.25;;;21.23;35.69
50632;BME280;49583;45.590;-122.498;2023-04-29T07:55:43;100943.94;;;21.17;35.83
50632;BME280;49583;45.590;-122.498;2023-04-29T07:57:56;100949.44;;;21.11;35.85
50632;BME280;49583;45.590;-122.498;2023-04-29T08:00:11;100952.38;;;21.06;36.06
50632;BME280;49583;45.590;-122.498;2023-04-29T08:02:24;100960.02;;;21.02;36.10
50632;BME280;49583;45.590;-122.498;2023-04-29T08:04:40;100958.77;;;20.96;36.22
50632;BME280;49583;45.590;-122.498;2023-04-29T08:06:54;100967.39;;;20.89;36.49
50632;BME280;49583;45.590;-122.498;2023-04-29T08:09:06;100970.67;;;20.84;36.58
50632;BME280;49583;45.590;-122.498;2023-04-29T08:11:22;100975.87;;;20.76;36.66
50632;BME280;49583;45.590;-122.498;2023-04-29T08:13:36;100981.76;;;20.71;36.74
50632;BME280;49583;45.590;-122.498;2023-04-29T08:15:49;100982.55;;;20.66;36.89
50632;BME280;49583;45.590;-122.498;2023-04-29T08:18:02;100983.02;;;20.61;36.94
50632;BME280;49583;45.590;-122.498;2023-04-29T08:20:16;100976.02;;;20.57;37.16
50632;BME280;49583;45.590;-122.498;2023-04-29T08:22:29;100979.27;;;20.52;37.41
50632;BME280;49583;45.590;-122.498;2023-04-29T08:24:42;100977.58;;;20.48;37.52
50632;BME280;49583;45.590;-122.498;2023-04-29T08:26:54;100983.80;;;20.46;37.58
50632;BME280;49583;45.590;-122.498;2023-04-29T08:29:08;100982.28;;;20.41;37.63
50632;BME280;49583;45.590;-122.498;2023-04-29T08:31:21;100986.73;;;20.40;37.81
50632;BME280;49583;45.590;-122.498;2023-04-29T08:33:35;100987.41;;;20.36;37.93
50632;BME280;49583;45.590;-122.498;2023-04-29T08:35:48;100987.23;;;20.34;38.01
50632;BME280;49583;45.590;-122.498;2023-04-29T08:38:00;100984.30;;;20.30;38.07
50632;BME280;49583;45.590;-122.498;2023-04-29T08:40:14;100985.15;;;20.27;37.91
50632;BME280;49583;45.590;-122.498;2023-04-29T08:42:34;100986.46;;;20.23;37.84
50632;BME280;49583;45.590;-122.498;2023-04-29T08:44:50;100985.50;;;20.19;37.90
50632;BME280;49583;45.590;-122.498;2023-04-29T08:47:03;100985.12;;;20.17;37.97
50632;BME280;49583;45.590;-122.498;2023-04-29T08:49:17;100985.55;;;20.14;38.00
50632;BME280;49583;45.590;-122.498;2023-04-29T08:51:29;100989.01;;;20.12;38.04
50632;BME280;49583;45.590;-122.498;2023-04-29T08:53:44;100988.86;;;20.10;38.22
50632;BME280;49583;45.590;-122.498;2023-04-29T08:55:57;100987.64;;;20.07;38.20
50632;BME280;49583;45.590;-122.498;2023-04-29T08:58:11;100989.76;;;20.03;38.32
50632;BME280;49583;45.590;-122.498;2023-04-29T09:00:25;100993.43;;;20.00;38.36
50632;BME280;49583;45.590;-122.498;2023-04-29T09:02:46;100995.94;;;19.97;38.58
50632;BME280;49583;45.590;-122.498;2023-04-29T09:05:04;100999.80;;;19.92;38.55
50632;BME280;49583;45.590;-122.498;2023-04-29T09:07:20;101006.45;;;19.88;38.81
50632;BME280;49583;45.590;-122.498;2023-04-29T09:09:34;100999.79;;;19.80;38.95
50632;BME280;49583;45.590;-122.498;2023-04-29T09:11:47;101002.20;;;19.76;39.10
50632;BME280;49583;45.590;-122.498;2023-04-29T09:14:02;100999.42;;;19.70;39.26
50632;BME280;49583;45.590;-122.498;2023-04-29T09:16:18;101008.60;;;19.67;39.36
50632;BME280;49583;45.590;-122.498;2023-04-29T09:18:47;101014.04;;;19.61;39.68
50632;BME280;49583;45.590;-122.498;2023-04-29T09:21:00;101019.59;;;19.53;39.77
50632;BME280;49583;45.590;-122.498;2023-04-29T09:23:38;101015.69;;;19.48;39.89
50632;BME280;49583;45.590;-122.498;2023-04-29T09:25:58;101017.04;;;19.45;39.95
50632;BME280;49583;45.590;-122.498;2023-04-29T09:28:17;101016.73;;;19.44;40.05
50632;BME280;49583;45.590;-122.498;2023-04-29T09:30:30;101015.24;;;19.42;40.30
50632;BME280;49583;45.590;-122.498;2023-04-29T09:32:43;101010.50;;;19.39;40.38
50632;BME280;49583;45.590;-122.498;2023-04-29T09:34:56;101011.23;;;19.37;40.59
50632;BME280;49583;45.590;-122.498;2023-04-29T09:37:25;101012.73;;;19.37;40.71
50632;BME280;49583;45.590;-122.498;2023-04-29T09:39:41;101017.02;;;19.37;40.86
50632;BME280;49583;45.590;-122.498;2023-04-29T09:42:03;101022.48;;;19.38;41.03
50632;BME280;49583;45.590;-122.498;2023-04-29T09:44:13;101025.93;;;19.36;41.16
50632;BME280;49583;45.590;-122.498;2023-04-29T09:46:26;101028.27;;;19.33;41.10
50632;BME280;49583;45.590;-122.498;2023-04-29T09:48:39;101024.46;;;19.31;41.18
50632;BME280;49583;45.590;-122.498;2023-04-29T09:51:03;101024.45;;;19.32;41.23
50632;BME280;49583;45.590;-122.498;2023-04-29T09:53:29;101026.68;;;19.32;41.23
50632;BME280;49583;45.590;-122.498;2023-04-29T09:56:01;101026.52;;;19.32;41.30
50632;BME280;49583;45.590;-122.498;2023-04-29T09:58:29;101036.15;;;19.29;41.39
50632;BME280;49583;45.590;-122.498;2023-04-29T10:03:47;101044.40;;;19.18;41.54
50632;BME280;49583;45.590;-122.498;2023-04-29T10:06:00;101047.69;;;19.13;41.62
50632;BME280;49583;45.590;-122.498;2023-04-29T10:08:13;101048.07;;;19.05;41.75
50632;BME280;49583;45.590;-122.498;2023-04-29T10:10:26;101052.63;;;19.00;41.84
50632;BME280;49583;45.590;-122.498;2023-04-29T10:12:41;101053.86;;;18.95;41.91
50632;BME280;49583;45.590;-122.498;2023-04-29T10:14:56;101055.57;;;18.88;41.97
50632;BME280;49583;45.590;-122.498;2023-04-29T10:17:19;101065.67;;;18.83;42.08
50632;BME280;49583;45.590;-122.498;2023-04-29T10:19:50;101055.80;;;18.74;42.26
50632;BME280;49583;45.590;-122.498;2023-04-29T10:22:06;101055.94;;;18.67;42.38
50632;BME280;49583;45.590;-122.498;2023-04-29T10:24:21;101061.75;;;18.61;42.42
50632;BME280;49583;45.590;-122.498;2023-04-29T10:26:35;101068.02;;;18.59;42.39
50632;BME280;49583;45.590;-122.498;2023-04-29T10:28:52;101071.35;;;18.55;42.55
50632;BME280;49583;45.590;-122.498;2023-04-29T10:31:08;101069.48;;;18.49;42.63
50632;BME280;49583;45.590;-122.498;2023-04-29T10:33:22;101070.84;;;18.46;42.72
50632;BME280;49583;45.590;-122.498;2023-04-29T10:35:35;101068.70;;;18.45;42.87
50632;BME280;49583;45.590;-122.498;2023-04-29T10:37:48;101058.75;;;18.40;42.88
50632;BME280;49583;45.590;-122.498;2023-04-29T10:40:09;101064.30;;;18.39;43.09
50632;BME280;49583;45.590;-122.498;2023-04-29T10:42:36;101068.81;;;18.36;43.16
50632;BME280;49583;45.590;-122.498;2023-04-29T10:45:18;101072.73;;;18.32;43.40
50632;BME280;49583;45.590;-122.498;2023-04-29T10:47:33;101071.17;;;18.25;43.41
50632;BME280;49583;45.590;-122.498;2023-04-29T10:50:03;101070.55;;;18.18;43.43
50632;BME280;49583;45.590;-122.498;2023-04-29T10:52:18;101072.94;;;18.13;43.45
50632;BME280;49583;45.590;-122.498;2023-04-29T10:54:31;101077.80;;;18.09;43.49
50632;BME280;49583;45.590;-122.498;2023-04-29T10:56:46;101077.96;;;18.05;43.53
50632;BME280;49583;45.590;-122.498;2023-04-29T10:58:59;101076.71;;;18.00;43.55
50632;BME280;49583;45.590;-122.498;2023-04-29T11:01:13;101081.24;;;17.94;43.70
50632;BME280;49583;45.590;-122.498;2023-04-29T11:03:51;101090.19;;;17.87;43.71
50632;BME280;49583;45.590;-122.498;2023-04-29T11:06:13;101087.20;;;17.78;43.85
50632;BME280;49583;45.590;-122.498;2023-04-29T11:08:25;101088.72;;;17.70;44.13
50632;BME280;49583;45.590;-122.498;2023-04-29T11:10:42;101092.68;;;17.65;44.14
50632;BME280;49583;45.590;-122.498;2023-04-29T11:13:22;101097.59;;;17.61;44.34
50632;BME280;49583;45.590;-122.498;2023-04-29T11:15:36;101111.32;;;17.60;44.35
50632;BME280;49583;45.590;-122.498;2023-04-29T11:17:49;101108.24;;;17.57;44.44
50632;BME280;49583;45.590;-122.498;2023-04-29T11:20:02;101102.80;;;17.55;44.64
50632;BME280;49583;45.590;-122.498;2023-04-29T11:22:23;101102.54;;;17.52;44.78
50632;BME280;49583;45.590;-122.498;2023-04-29T11:24:37;101103.73;;;17.48;44.94
50632;BME280;49583;45.590;-122.498;2023-04-29T11:27:03;101105.63;;;17.44;45.18